Time;durP1;ratioP1;P1;durP2;ratioP2;P2;SDS_P1;SDS_P2;PMS_P1;PMS_P2;Temp;Humidity;BMP_temperature;BMP_pressure;BME280_temperature;BME280_humidity;BME280_pressure;Samples;Min_cycle;Max_cycle;Signal;HPM_P1;HPM_P2
2022/03/16 00:02:09;;;;;;;59.90;40.15;;;;;;;4.44;56.84;101793.38;5012291;28;20030;-74
2022/03/16 00:04:35;;;;;;;52.05;39.35;;;;;;;4.56;58.23;101767.97;5011640;28;20045;-74
2022/03/16 00:07:00;;;;;;;58.35;39.72;;;;;;;4.55;57.73;101784.38;5010349;28;20042;-73
2022/03/16 00:09:26;;;;;;;58.50;38.92;;;;;;;4.68;56.20;101767.63;5011141;28;20045;-74
2022/03/16 00:11:52;;;;;;;60.65;42.63;;;;;;;4.64;58.29;101758.81;5011443;28;20088;-74
2022/03/16 00:14:17;;;;;;;61.83;39.58;;;;;;;4.49;59.15;101754.63;5010618;28;20426;-73
2022/03/16 00:16:43;;;;;;;55.33;40.17;;;;;;;4.32;60.83;101772.03;5010765;28;20042;-74
2022/03/16 00:19:09;;;;;;;56.28;40.80;;;;;;;4.20;59.71;101749.84;5010405;28;20483;-74
2022/03/16 00:21:34;;;;;;;56.38;40.28;;;;;;;4.27;58.91;101751.03;5010284;28;20044;-72
2022/03/16 00:24:00;;;;;;;53.63;40.55;;;;;;;4.41;58.78;101749.97;5010520;28;20363;-74
2022/03/16 00:26:26;;;;;;;51.00;40.08;;;;;;;4.11;58.19;101748.50;5012016;28;20032;-74
2022/03/16 00:28:51;;;;;;;54.67;40.25;;;;;;;4.48;56.21;101761.53;5009920;28;20120;-74
2022/03/16 00:31:17;;;;;;;51.90;38.45;;;;;;;4.63;57.32;101746.63;5010483;28;20050;-73
2022/03/16 00:33:42;;;;;;;52.80;39.05;;;;;;;4.23;59.24;101749.09;5011521;28;20065;-75
2022/03/16 00:36:08;;;;;;;67.18;43.03;;;;;;;4.06;58.97;101727.50;5009985;28;20034;-74
2022/03/16 00:38:33;;;;;;;55.78;42.50;;;;;;;4.30;59.10;101735.56;5010483;28;20039;-74
2022/03/16 00:40:59;;;;;;;62.33;39.50;;;;;;;4.47;55.17;101722.47;5011119;28;20042;-74
2022/03/16 00:43:24;;;;;;;64.38;42.63;;;;;;;4.82;55.61;101722.38;5010939;28;20042;-74
2022/03/16 00:45:51;;;;;;;61.47;42.90;;;;;;;4.64;57.64;101745.81;5009783;28;20048;-73
2022/03/16 00:48:17;;;;;;;55.75;42.80;;;;;;;4.47;56.36;101738.06;5009590;28;20046;-74
2022/03/16 00:50:42;;;;;;;63.63;42.00;;;;;;;4.73;53.68;101740.16;5010468;28;20488;-74
2022/03/16 00:53:08;;;;;;;57.53;41.63;;;;;;;4.73;56.72;101728.84;5010391;28;20022;-73
2022/03/16 00:55:33;;;;;;;67.05;41.85;;;;;;;4.82;57.02;101719.78;5010410;28;20041;-73
2022/03/16 00:58:01;;;;;;;65.40;41.22;;;;;;;4.99;52.09;101706.63;5010747;28;20428;-75
2022/03/16 01:00:26;;;;;;;53.05;40.67;;;;;;;5.04;52.27;101713.78;5012261;28;20096;-74
2022/03/16 01:02:53;;;;;;;53.95;40.58;;;;;;;4.98;54.12;101718.72;5011063;28;20025;-74
2022/03/16 01:05:19;;;;;;;65.05;40.97;;;;;;;5.09;52.53;101706.19;5012793;28;20037;-75
2022/03/16 01:07:44;;;;;;;53.97;38.20;;;;;;;5.07;53.10;101707.81;5010454;28;20037;-73
2022/03/16 01:11:04;;;;;;;57.88;40.75;;;;;;;4.90;54.77;101696.69;5011216;28;20038;-73
2022/03/16 01:17:21;;;;;;;44.55;34.65;;;;;;;5.40;48.99;101710.09;5011023;28;20041;-73
2022/03/16 01:20:20;;;;;;;53.60;36.47;;;;;;;5.41;49.46;101711.88;5010766;28;20060;-74
2022/03/16 01:26:07;;;;;;;48.92;38.60;;;;;;;5.06;53.40;101693.06;5013570;28;20073;-74
2022/03/16 01:28:33;;;;;;;63.70;39.20;;;;;;;4.99;54.23;101697.09;5010073;28;20081;-73
2022/03/16 01:31:01;;;;;;;52.03;36.25;;;;;;;5.11;50.46;101670.72;5009141;28;20405;-72
2022/03/16 01:33:27;;;;;;;47.05;33.72;;;;;;;5.07;50.63;101674.88;5011445;28;20484;-73
2022/03/16 01:35:53;;;;;;;58.58;39.40;;;;;;;5.23;50.95;101663.41;5013047;28;20026;-73
2022/03/16 01:38:18;;;;;;;50.72;37.72;;;;;;;5.18;51.07;101649.34;5013613;28;20022;-73
2022/03/16 01:40:44;;;;;;;57.15;39.72;;;;;;;5.24;52.40;101669.50;5013216;28;20041;-73
2022/03/16 01:46:31;;;;;;;52.38;38.10;;;;;;;5.39;50.64;101674.47;5013615;28;20091;-75
2022/03/16 01:48:58;;;;;;;53.22;36.85;;;;;;;4.91;51.65;101661.16;5012529;28;20037;-74
2022/03/16 01:51:24;;;;;;;54.85;38.20;;;;;;;5.28;52.37;101667.09;5012977;28;20042;-75
2022/03/16 01:53:50;;;;;;;54.55;38.17;;;;;;;5.13;53.24;101649.94;5011701;28;20080;-74
2022/03/16 01:56:17;;;;;;;54.47;38.72;;;;;;;5.23;51.29;101660.81;5013257;28;20022;-74
2022/03/16 01:58:43;;;;;;;51.67;37.50;;;;;;;5.31;51.68;101655.94;5011370;28;20081;-75
2022/03/16 02:01:08;;;;;;;49.83;39.35;;;;;;;5.04;52.95;101642.66;5012100;28;20034;-74
2022/03/16 02:03:34;;;;;;;54.38;39.13;;;;;;;4.97;52.09;101628.50;5016589;28;20481;-74
2022/03/16 02:06:02;;;;;;;51.75;38.90;;;;;;;5.23;52.01;101639.13;5017070;28;20401;-74
2022/03/16 02:08:32;;;;;;;55.60;36.88;;;;;;;5.14;54.52;101628.34;5015663;28;20520;-74
2022/03/16 02:11:49;;;;;;;47.85;35.72;;;;;;;5.08;54.32;101626.38;5015554;28;20082;-73
2022/03/16 02:14:14;;;;;;;60.90;41.58;;;;;;;5.06;52.50;101618.50;5016080;28;20080;-73
2022/03/16 02:16:40;;;;;;;51.63;39.00;;;;;;;5.03;52.99;101614.88;5014227;28;20065;-74
2022/03/16 02:19:05;;;;;;;57.72;41.30;;;;;;;4.77;53.70;101619.84;5015051;28;20038;-73
2022/03/16 02:21:32;;;;;;;69.22;39.55;;;;;;;4.85;54.66;101608.06;5016556;28;20462;-74
2022/03/16 02:23:58;;;;;;;56.10;39.10;;;;;;;4.60;54.85;101603.53;5015825;28;20549;-73
2022/03/16 02:29:45;;;;;;;58.30;39.33;;;;;;;4.21;57.57;101571.47;5016210;28;20064;-74
2022/03/16 02:32:10;;;;;;;50.28;40.00;;;;;;;4.52;56.45;101598.81;5016262;28;20390;-73
2022/03/16 02:34:36;;;;;;;54.00;40.50;;;;;;;4.68;56.22;101583.06;5016287;28;20041;-75
2022/03/16 02:37:01;;;;;;;62.72;43.10;;;;;;;4.73;56.94;101593.66;5014583;28;20037;-75
2022/03/16 02:42:49;;;;;;;61.38;46.35;;;;;;;4.68;56.11;101582.16;5018785;28;20040;-73
2022/03/16 02:48:35;;;;;;;63.65;43.30;;;;;;;4.70;54.87;101567.53;5016394;28;20049;-74
2022/03/16 02:51:01;;;;;;;59.88;42.88;;;;;;;4.59;55.45;101574.88;5011525;28;20034;-74
2022/03/16 02:53:26;;;;;;;60.88;43.20;;;;;;;4.83;56.42;101577.63;5014863;28;20045;-74
2022/03/16 02:59:14;;;;;;;55.65;42.28;;;;;;;4.90;54.99;101571.88;5012504;28;20052;-74
2022/03/16 03:01:39;;;;;;;63.63;44.08;;;;;;;4.70;58.35;101567.53;5015932;28;20430;-74
2022/03/16 03:04:05;;;;;;;66.95;45.55;;;;;;;4.63;56.03;101566.38;5015526;28;20053;-74
2022/03/16 03:09:52;;;;;;;67.13;44.30;;;;;;;4.74;55.29;101579.84;5013244;28;20037;-74
2022/03/16 03:12:18;;;;;;;66.22;45.97;;;;;;;4.72;54.93;101566.78;5013403;28;20042;-73
2022/03/16 03:14:43;;;;;;;71.10;46.40;;;;;;;4.74;55.94;101554.72;5014081;28;20025;-75
2022/03/16 03:17:09;;;;;;;62.88;45.80;;;;;;;4.69;56.11;101555.38;5013181;28;20026;-75
2022/03/16 03:22:56;;;;;;;67.95;46.33;;;;;;;4.68;54.78;101544.06;5015744;28;20451;-74
2022/03/16 03:28:43;;;;;;;60.60;45.47;;;;;;;4.38;56.25;101549.75;5015785;28;20065;-74
2022/03/16 03:34:36;;;;;;;83.28;50.45;;;;;;;4.23;57.07;101523.06;5014143;28;20041;-74
2022/03/16 03:37:02;;;;;;;67.57;48.45;;;;;;;4.11;57.32;101522.56;5014207;28;20374;-75
2022/03/16 03:39:27;;;;;;;77.47;48.92;;;;;;;3.98;58.38;101521.09;5014903;28;20038;-75
2022/03/16 03:51:46;;;;;;;75.13;52.13;;;;;;;3.99;57.98;101534.16;5014867;28;20040;-74
2022/03/16 03:54:12;;;;;;;83.68;55.03;;;;;;;3.99;57.98;101530.69;5011997;28;20397;-74
2022/03/16 03:56:37;;;;;;;73.15;50.25;;;;;;;3.71;58.27;101516.44;5014094;28;20037;-74
2022/03/16 03:59:03;;;;;;;70.57;51.30;;;;;;;3.75;58.00;101522.69;5012082;28;20038;-74
2022/03/16 04:01:28;;;;;;;79.65;52.90;;;;;;;3.72;56.88;101512.16;5012789;28;20096;-74
2022/03/16 04:03:54;;;;;;;71.72;52.88;;;;;;;3.93;57.67;101515.75;5013321;28;20489;-74
2022/03/16 04:06:19;;;;;;;78.63;53.92;;;;;;;4.18;58.75;101535.88;5012182;28;20386;-74
2022/03/16 04:08:45;;;;;;;68.43;51.15;;;;;;;3.89;57.63;101528.50;5013128;28;20022;-74
2022/03/16 04:11:11;;;;;;;67.00;51.30;;;;;;;4.12;56.51;101535.63;5012461;28;20018;-73
2022/03/16 04:13:38;;;;;;;79.78;52.65;;;;;;;3.83;57.08;101526.50;5012957;28;20100;-74
2022/03/16 04:16:04;;;;;;;87.68;58.00;;;;;;;3.87;56.67;101522.34;5009779;28;20191;-73
2022/03/16 04:18:30;;;;;;;79.38;56.40;;;;;;;3.82;56.43;101516.94;5014227;28;20466;-74
2022/03/16 04:20:55;;;;;;;74.05;53.40;;;;;;;3.53;55.56;101513.88;5011716;28;20034;-73
2022/03/16 04:23:21;;;;;;;72.32;49.25;;;;;;;3.77;55.68;101518.47;5010036;28;20378;-74
2022/03/16 04:25:46;;;;;;;73.82;50.63;;;;;;;3.91;54.49;101519.97;5013846;28;20092;-73
2022/03/16 04:28:14;;;;;;;71.85;53.50;;;;;;;4.09;55.34;101522.47;5012787;28;20030;-73
2022/03/16 04:30:40;;;;;;;77.07;52.40;;;;;;;3.77;55.58;101495.97;5009864;28;20038;-73
2022/03/16 04:33:05;;;;;;;63.80;51.95;;;;;;;3.98;55.24;101498.66;5011324;28;20033;-73
2022/03/16 04:35:30;;;;;;;79.85;50.50;;;;;;;3.81;55.71;101500.47;5010668;28;20454;-73
2022/03/16 04:41:18;;;;;;;70.20;48.28;;;;;;;3.83;54.74;101489.28;5014757;28;20413;-73
2022/03/16 04:43:43;;;;;;;67.93;48.72;;;;;;;3.65;54.27;101499.72;5012630;28;20037;-74
2022/03/16 04:46:09;;;;;;;74.18;49.63;;;;;;;3.78;54.75;101484.75;5012511;28;20432;-73
2022/03/16 04:48:34;;;;;;;69.75;49.42;;;;;;;3.83;54.39;101490.16;4992368;28;20046;-74
2022/03/16 04:50:59;;;;;;;73.88;49.85;;;;;;;3.74;55.15;101493.22;4992531;28;20065;-74
2022/03/16 04:53:25;;;;;;;67.97;49.15;;;;;;;4.00;54.92;101497.00;4993043;28;20019;-74
2022/03/16 04:55:50;;;;;;;83.82;50.80;;;;;;;3.72;55.32;101493.97;4992776;28;20470;-73
2022/03/16 04:58:51;;;;;;;88.00;56.58;;;;;;;3.95;55.00;101510.59;4991391;28;20494;-73
2022/03/16 05:04:38;;;;;;;74.85;54.60;;;;;;;3.51;58.19;101492.22;4992454;28;20521;-73
2022/03/16 05:07:04;;;;;;;71.13;51.50;;;;;;;3.49;58.66;101496.44;4991366;28;20042;-73
2022/03/16 05:09:29;;;;;;;80.90;53.45;;;;;;;3.32;59.59;101492.16;4992255;28;20493;-73
2022/03/16 05:11:54;;;;;;;78.95;52.58;;;;;;;3.37;60.13;101490.66;4992204;28;20042;-74
2022/03/16 05:14:25;;;;;;;81.20;52.97;;;;;;;3.57;59.36;101487.28;4991873;28;20034;-74
2022/03/16 05:16:51;;;;;;;75.82;55.75;;;;;;;3.55;58.61;101470.75;4991002;28;20046;-74
2022/03/16 05:19:16;;;;;;;75.28;53.03;;;;;;;3.58;59.11;101473.50;4992423;28;20038;-73
2022/03/16 05:21:43;;;;;;;86.45;54.90;;;;;;;3.82;58.55;101480.59;4993330;28;20061;-73
2022/03/16 05:24:08;;;;;;;85.75;53.83;;;;;;;3.95;59.66;101488.09;4990537;28;20478;-74
2022/03/16 05:26:34;;;;;;;66.28;53.13;;;;;;;3.81;59.44;101491.78;4994015;28;20018;-74
2022/03/16 05:28:59;;;;;;;95.30;62.88;;;;;;;3.35;60.43;101493.19;4991484;28;20129;-74
2022/03/16 05:34:46;;;;;;;117.15;64.10;;;;;;;3.26;62.19;101478.91;5009692;28;20048;-75
2022/03/16 05:37:12;;;;;;;104.57;64.82;;;;;;;3.54;61.17;101486.25;5011864;28;20049;-75
2022/03/16 05:39:37;;;;;;;86.65;58.55;;;;;;;3.74;59.33;101481.97;5011015;28;20064;-75
2022/03/16 05:46:20;;;;;;;114.45;75.03;;;;;;;3.85;61.05;101496.31;5012284;28;20493;-75
2022/03/16 05:48:45;;;;;;;121.28;74.30;;;;;;;3.72;60.02;101491.38;5008659;28;20044;-74
2022/03/16 05:51:11;;;;;;;124.35;80.53;;;;;;;3.66;60.81;101494.59;5008448;28;20034;-74
2022/03/16 05:53:36;;;;;;;134.20;84.93;;;;;;;3.57;60.23;101473.41;5010111;28;20026;-75
2022/03/16 05:56:02;;;;;;;157.77;95.18;;;;;;;3.59;60.37;101495.13;5009613;28;20037;-74
2022/03/16 05:58:28;;;;;;;179.90;113.45;;;;;;;3.72;60.44;101507.88;5008167;28;20026;-73
2022/03/16 06:00:55;;;;;;;108.90;71.65;;;;;;;3.66;58.95;101492.00;5009114;28;20380;-74
2022/03/16 06:03:38;;;;;;;71.32;50.25;;;;;;;3.78;55.15;101502.94;5009567;28;20044;-75
2022/03/16 06:06:05;;;;;;;79.18;50.40;;;;;;;3.71;55.75;101508.66;5009255;28;20053;-74
2022/03/16 06:08:30;;;;;;;101.95;66.00;;;;;;;3.89;55.06;101493.03;5009793;28;20454;-74
2022/03/16 06:10:56;;;;;;;104.40;60.42;;;;;;;3.98;54.51;101479.56;5007974;28;20084;-75
2022/03/16 06:13:23;;;;;;;90.50;53.38;;;;;;;3.65;53.69;101482.44;5008669;28;20046;-75
2022/03/16 06:15:49;;;;;;;104.88;54.25;;;;;;;3.71;53.17;101487.03;5009616;28;20034;-73
2022/03/16 06:18:14;;;;;;;115.70;63.28;;;;;;;4.02;52.66;101486.66;5008120;28;20058;-74
2022/03/16 06:20:40;;;;;;;83.35;50.25;;;;;;;3.85;52.02;101488.53;5007666;28;20051;-72
2022/03/16 06:23:05;;;;;;;62.10;42.83;;;;;;;3.92;51.68;101492.28;5009033;28;20026;-74
2022/03/16 06:25:35;;;;;;;56.03;43.50;;;;;;;3.66;52.63;101504.09;5009098;28;20394;-74
2022/03/16 06:28:00;;;;;;;75.43;39.80;;;;;;;3.34;51.62;101486.22;5007376;28;20041;-74
2022/03/16 06:30:26;;;;;;;72.82;44.45;;;;;;;3.57;51.93;101492.47;5008870;28;20095;-74
2022/03/16 06:32:52;;;;;;;63.50;45.65;;;;;;;3.80;51.80;101482.25;5008827;28;20030;-74
2022/03/16 06:35:18;;;;;;;69.00;43.00;;;;;;;3.76;52.09;101488.13;5008403;28;20120;-73
2022/03/16 06:37:45;;;;;;;67.28;47.15;;;;;;;3.47;53.11;101479.03;5008746;28;20481;-74
2022/03/16 06:40:11;;;;;;;75.75;51.45;;;;;;;3.18;53.81;101481.13;5009908;28;20045;-74
2022/03/16 06:42:50;;;;;;;57.67;40.47;;;;;;;3.17;52.73;101488.03;5007920;28;20049;-75
2022/03/16 06:45:16;;;;;;;100.82;36.55;;;;;;;3.27;52.85;101476.38;5008442;28;20132;-74
2022/03/16 06:47:42;;;;;;;65.63;36.60;;;;;;;3.28;52.80;101483.34;5009358;28;20042;-74
2022/03/16 06:50:08;;;;;;;84.63;48.45;;;;;;;3.32;52.75;101485.25;5011467;28;20316;-74
2022/03/16 06:52:33;;;;;;;70.28;50.13;;;;;;;3.16;52.91;101469.78;5012442;28;20121;-75
2022/03/16 06:54:59;;;;;;;59.65;45.38;;;;;;;3.05;52.10;101471.00;5011398;28;20133;-75
2022/03/16 06:57:24;;;;;;;59.45;33.15;;;;;;;3.09;52.53;101478.09;5012271;28;20049;-75
2022/03/16 06:59:50;;;;;;;72.75;48.63;;;;;;;3.12;53.19;101491.22;5012815;28;20469;-75
2022/03/16 07:02:17;;;;;;;79.03;50.25;;;;;;;3.20;53.41;101484.69;5011563;28;20081;-74
2022/03/16 07:04:42;;;;;;;73.40;49.70;;;;;;;3.51;51.91;101484.41;5012105;28;20049;-74
2022/03/16 07:07:08;;;;;;;67.55;37.50;;;;;;;3.80;52.01;101503.00;5012392;28;20041;-74
2022/03/16 07:09:33;;;;;;;60.30;34.33;;;;;;;3.60;54.11;101507.28;5011263;28;20057;-74
2022/03/16 07:11:59;;;;;;;63.88;46.60;;;;;;;3.37;54.85;101488.97;5011356;28;20030;-74
2022/03/16 07:14:30;;;;;;;73.20;47.28;;;;;;;3.76;54.42;101501.97;5012649;28;20048;-75
2022/03/16 07:16:56;;;;;;;65.65;47.20;;;;;;;3.77;53.90;101489.91;5011276;28;20076;-74
2022/03/16 07:19:22;;;;;;;86.32;42.35;;;;;;;3.78;53.81;101495.16;5011572;28;20049;-75
2022/03/16 07:21:47;;;;;;;79.65;50.80;;;;;;;4.00;52.85;101484.03;5011942;28;20037;-75
2022/03/16 07:24:13;;;;;;;73.78;42.80;;;;;;;3.83;52.23;101497.06;5010907;28;20045;-72
2022/03/16 07:26:39;;;;;;;63.53;39.40;;;;;;;3.42;51.97;101481.41;5011880;28;20092;-75
2022/03/16 07:29:05;;;;;;;49.35;34.25;;;;;;;3.14;51.70;101468.84;5010431;28;20068;-74
2022/03/16 07:31:31;;;;;;;51.38;35.83;;;;;;;3.45;51.79;101489.31;5010556;28;20486;-73
2022/03/16 07:33:56;;;;;;;53.80;37.22;;;;;;;3.28;51.18;101493.72;5007967;28;20049;-74
2022/03/16 07:36:21;;;;;;;35.10;22.90;;;;;;;3.26;51.79;101490.16;5005805;28;20053;-74
2022/03/16 07:38:47;;;;;;;42.40;31.13;;;;;;;3.07;52.08;101490.13;5001386;28;20022;-76
2022/03/16 07:41:14;;;;;;;32.95;21.08;;;;;;;3.45;51.01;101484.13;5001595;28;20570;-74
2022/03/16 07:43:40;;;;;;;42.72;26.02;;;;;;;3.28;51.68;101491.13;5002193;28;20124;-74
2022/03/16 07:46:05;;;;;;;51.65;34.88;;;;;;;3.43;51.85;101477.09;5009708;28;20184;-74
2022/03/16 07:48:31;;;;;;;55.10;35.75;;;;;;;3.66;51.53;101484.22;4989542;28;20034;-74
2022/03/16 07:50:56;;;;;;;49.40;38.20;;;;;;;3.11;53.54;101472.19;5007753;28;20528;-74
2022/03/16 07:53:21;;;;;;;37.95;24.95;;;;;;;3.16;53.86;101470.69;5006409;28;20034;-74
2022/03/16 07:56:43;;;;;;;50.85;27.90;;;;;;;3.40;54.17;101483.03;4994021;28;20100;-74
2022/03/16 07:59:09;;;;;;;61.17;40.10;;;;;;;3.62;53.23;101473.63;5025939;28;20976;-74
2022/03/16 08:01:34;;;;;;;65.68;40.80;;;;;;;3.74;52.38;101472.47;5010747;28;20046;-74
2022/03/16 08:04:00;;;;;;;70.95;38.65;;;;;;;3.80;53.42;101474.47;5011369;28;20042;-74
2022/03/16 08:06:25;;;;;;;52.60;30.50;;;;;;;4.15;51.50;101469.94;5009824;28;20034;-74
2022/03/16 08:08:51;;;;;;;49.15;29.90;;;;;;;4.21;52.07;101471.09;5011655;28;20026;-74
2022/03/16 08:11:17;;;;;;;59.78;40.50;;;;;;;4.37;51.85;101472.59;5011878;28;20029;-74
2022/03/16 08:13:42;;;;;;;65.40;42.13;;;;;;;3.72;53.32;101476.72;5009449;28;20363;-74
2022/03/16 08:16:08;;;;;;;72.10;42.13;;;;;;;3.80;54.04;101475.34;5011047;28;20034;-74
2022/03/16 08:18:34;;;;;;;83.65;47.60;;;;;;;3.66;54.24;101459.97;5010980;28;20128;-74
2022/03/16 08:20:59;;;;;;;127.88;73.32;;;;;;;3.61;55.01;101459.78;5008028;28;20053;-73
2022/03/16 08:23:25;;;;;;;75.97;44.35;;;;;;;3.89;54.93;101463.59;5002827;28;20116;-73
2022/03/16 08:25:50;;;;;;;96.03;60.05;;;;;;;3.79;55.15;101467.47;4999114;28;20105;-73
2022/03/16 08:28:16;;;;;;;75.80;40.10;;;;;;;3.86;54.86;101453.94;5001791;28;20037;-73
2022/03/16 08:30:42;;;;;;;82.25;54.03;;;;;;;4.11;54.70;101455.03;4993607;28;20392;-71
2022/03/16 08:33:08;;;;;;;97.78;56.42;;;;;;;4.61;52.64;101435.44;5022059;28;20030;-70
2022/03/16 08:35:33;;;;;;;83.07;54.22;;;;;;;4.89;52.13;101444.38;5010949;28;20029;-71
2022/03/16 08:37:59;;;;;;;70.70;50.33;;;;;;;5.11;51.93;101434.00;5009313;28;20057;-69
2022/03/16 08:40:24;;;;;;;73.82;50.97;;;;;;;4.91;52.22;101440.13;5010527;28;20045;-70
2022/03/16 08:42:52;;;;;;;76.35;50.25;;;;;;;5.48;51.97;101438.00;4991978;28;20419;-70
2022/03/16 08:45:20;;;;;;;90.40;45.40;;;;;;;5.48;51.58;101427.59;4994492;28;20049;-70
2022/03/16 08:47:46;;;;;;;78.78;43.10;;;;;;;5.39;51.67;101435.03;5011583;28;20033;-70
2022/03/16 08:50:11;;;;;;;78.70;46.55;;;;;;;5.98;51.58;101420.72;5001309;28;20030;-70
2022/03/16 08:53:21;;;;;;;76.15;47.00;;;;;;;5.65;51.89;101444.69;4995503;28;20042;-70
2022/03/16 08:55:47;;;;;;;67.03;47.90;;;;;;;4.94;54.15;101448.03;4991444;28;20081;-70
2022/03/16 08:58:15;;;;;;;73.43;48.78;;;;;;;4.55;54.88;101448.22;5011977;28;20065;-70
2022/03/16 09:00:41;;;;;;;80.07;49.15;;;;;;;5.16;53.83;101445.44;5000156;28;20052;-70
2022/03/16 09:03:08;;;;;;;68.47;47.50;;;;;;;5.40;54.22;101449.81;5000406;28;20532;-70
2022/03/16 09:05:33;;;;;;;83.07;48.72;;;;;;;5.45;53.46;101456.94;5010693;28;20030;-70
2022/03/16 09:07:59;;;;;;;75.47;53.47;;;;;;;5.23;53.11;101443.97;5009029;28;20052;-70
2022/03/16 09:10:25;;;;;;;83.53;55.45;;;;;;;5.43;53.21;101449.91;5008839;28;20098;-70
2022/03/16 09:12:50;;;;;;;84.30;54.72;;;;;;;4.78;54.06;101450.03;5005187;28;20121;-70
2022/03/16 09:15:16;;;;;;;78.57;54.70;;;;;;;5.01;52.92;101455.25;4998256;28;20069;-74
2022/03/16 09:17:41;;;;;;;84.72;54.13;;;;;;;4.55;54.51;101443.00;5000251;28;20033;-75
2022/03/16 09:20:07;;;;;;;86.90;55.08;;;;;;;4.50;54.86;101439.34;5008140;28;20487;-74
2022/03/16 09:22:33;;;;;;;89.28;49.47;;;;;;;4.59;54.25;101447.53;5005921;28;20466;-75
2022/03/16 09:24:58;;;;;;;90.00;53.35;;;;;;;4.64;54.31;101453.78;5005983;28;20179;-74
2022/03/16 09:27:25;;;;;;;94.35;53.55;;;;;;;4.76;53.05;101443.88;4992757;28;20034;-76
2022/03/16 09:29:51;;;;;;;79.28;55.33;;;;;;;4.96;52.70;101442.06;4995936;28;20553;-74
2022/03/16 09:32:18;;;;;;;68.53;51.67;;;;;;;5.19;52.14;101445.56;4996910;28;20121;-73
2022/03/16 09:34:44;;;;;;;80.55;48.25;;;;;;;4.61;53.97;101428.56;5007799;28;20080;-74
2022/03/16 09:37:12;;;;;;;94.80;52.05;;;;;;;5.19;52.55;101447.28;5010128;28;20034;-74
2022/03/16 09:39:38;;;;;;;94.90;51.28;;;;;;;4.79;53.79;101437.91;5009242;28;20141;-75
2022/03/16 09:42:04;;;;;;;79.32;50.47;;;;;;;4.67;53.80;101434.84;5009149;28;20121;-74
2022/03/16 09:44:31;;;;;;;86.60;55.60;;;;;;;5.02;53.14;101438.81;5010272;28;20033;-75
2022/03/16 09:46:58;;;;;;;86.38;50.63;;;;;;;5.04;53.36;101429.38;5008350;28;20042;-76
2022/03/16 09:49:27;;;;;;;91.00;53.75;;;;;;;4.93;52.88;101428.94;4991213;28;20478;-74
2022/03/16 09:51:54;;;;;;;76.80;53.75;;;;;;;5.06;52.58;101427.72;5009838;28;20038;-74
2022/03/16 09:54:21;;;;;;;66.35;52.08;;;;;;;4.99;53.28;101416.19;5008215;28;20049;-75
2022/03/16 09:56:47;;;;;;;100.75;60.30;;;;;;;5.17;52.68;101418.59;5009472;28;20022;-74
2022/03/16 09:59:14;;;;;;;83.38;55.13;;;;;;;4.64;53.71;101417.41;5009163;28;20045;-76
2022/03/16 10:01:42;;;;;;;73.78;55.85;;;;;;;4.60;53.27;101413.78;5007072;28;20065;-74
2022/03/16 10:04:07;;;;;;;86.25;56.75;;;;;;;4.54;53.39;101408.34;5008888;28;20478;-75
2022/03/16 10:06:42;;;;;;;104.88;61.63;;;;;;;4.75;52.91;101426.53;5008338;28;20501;-74
2022/03/16 10:15:23;;;;;;;88.68;51.70;;;;;;;4.85;52.44;101405.25;5009612;28;20461;-76
2022/03/16 10:18:02;;;;;;;90.05;53.22;;;;;;;5.09;52.42;101414.81;5007939;28;20044;-76
2022/03/16 10:20:39;;;;;;;72.65;49.90;;;;;;;4.64;52.63;101389.69;5009997;28;20045;-74
2022/03/16 10:23:10;;;;;;;78.93;51.08;;;;;;;4.91;53.04;101404.59;5012144;28;20115;-76
2022/03/16 10:25:39;;;;;;;81.97;48.30;;;;;;;4.60;53.27;101405.09;5007430;28;20046;-75
2022/03/16 10:28:10;;;;;;;76.30;50.63;;;;;;;4.51;53.38;101395.22;4993899;28;20029;-76
2022/03/16 10:30:48;;;;;;;73.80;47.95;;;;;;;4.69;53.53;101394.19;5008944;28;20042;-75
2022/03/16 10:33:18;;;;;;;75.47;49.50;;;;;;;4.42;53.41;101393.16;5010322;28;20058;-75
2022/03/16 10:36:07;;;;;;;73.00;50.30;;;;;;;4.33;53.15;101400.56;4997293;28;20017;-75
2022/03/16 10:47:50;;;;;;;83.05;50.72;;;;;;;4.83;53.45;101374.81;5034404;28;20127;-77
2022/03/16 10:50:56;;;;;;;70.53;51.65;;;;;;;4.95;53.03;101380.47;5032850;28;20136;-74
2022/03/16 10:54:03;;;;;;;71.30;49.63;;;;;;;4.56;53.74;101383.28;5033892;28;20044;-75
2022/03/16 10:56:30;;;;;;;71.57;50.70;;;;;;;4.92;52.99;101390.78;5032602;28;20053;-74
2022/03/16 10:58:57;;;;;;;69.15;47.55;;;;;;;5.06;53.16;101392.19;5032895;28;20043;-75
2022/03/16 11:01:24;;;;;;;75.88;45.97;;;;;;;4.83;52.96;101386.09;5031416;28;20129;-74
2022/03/16 11:04:25;;;;;;;70.63;49.65;;;;;;;5.17;55.79;101399.50;5032850;28;20041;-74
2022/03/16 11:10:36;;;;;;;77.18;49.30;;;;;;;5.00;54.32;101404.06;5013478;28;20100;-74
2022/03/16 11:15:50;;;;;;;75.63;49.95;;;;;;;5.11;55.46;101396.69;5005043;28;20119;-74
2022/03/16 11:18:18;;;;;;;80.22;53.58;;;;;;;5.25;55.78;101392.88;5006078;28;20124;-75
2022/03/16 11:20:48;;;;;;;81.75;56.75;;;;;;;5.35;54.81;101394.09;5012694;28;20030;-74
2022/03/16 11:27:12;;;;;;;84.53;61.28;;;;;;;5.78;54.40;101396.53;5013011;28;20052;-75
2022/03/16 11:30:12;;;;;;;74.53;57.45;;;;;;;5.34;55.92;101402.72;5011179;28;20068;-75
2022/03/16 11:32:43;;;;;;;75.53;54.35;;;;;;;5.27;56.50;101406.84;4998880;28;20054;-75
2022/03/16 11:35:13;;;;;;;90.53;57.72;;;;;;;5.30;56.46;101383.53;4999168;28;20038;-76
2022/03/16 11:37:44;;;;;;;86.85;58.75;;;;;;;5.43;56.35;101390.97;5009837;28;20091;-75
2022/03/16 11:40:10;;;;;;;100.13;61.53;;;;;;;5.56;55.01;101365.38;5013192;28;20042;-75
2022/03/16 11:42:37;;;;;;;86.38;62.03;;;;;;;5.52;55.64;101381.72;5014216;28;20038;-75
2022/03/16 11:45:46;;;;;;;84.22;58.10;;;;;;;5.59;55.45;101373.28;5012846;28;20025;-75
2022/03/16 11:51:33;;;;;;;82.97;57.53;;;;;;;5.24;55.43;101365.06;4959807;28;20447;-75
2022/03/16 11:54:01;;;;;;;85.97;56.55;;;;;;;5.43;55.53;101372.75;4970861;28;20034;-74
2022/03/16 11:56:39;;;;;;;86.15;57.55;;;;;;;5.55;55.32;101372.31;4983620;28;20074;-74
2022/03/16 11:59:28;;;;;;;90.57;58.35;;;;;;;5.91;54.27;101364.00;5010035;28;20045;-76
2022/03/16 12:05:16;;;;;;;87.78;62.42;;;;;;;5.62;55.01;101360.38;5016821;28;20088;-82
2022/03/16 12:07:45;;;;;;;98.65;59.05;;;;;;;5.88;54.26;101358.69;4991953;28;20073;-76
2022/03/16 12:10:12;;;;;;;75.38;55.22;;;;;;;5.52;55.45;101342.66;4992745;28;20486;-74
2022/03/16 12:16:43;;;;;;;88.15;59.22;;;;;;;5.28;56.47;101339.22;5012817;28;20045;-75
2022/03/16 12:19:31;;;;;;;98.82;61.08;;;;;;;5.14;57.20;101334.34;5011255;28;20045;-76
2022/03/16 12:21:59;;;;;;;85.43;60.38;;;;;;;5.33;56.68;101326.38;5013712;28;20049;-75
2022/03/16 12:30:05;;;;;;;86.47;58.67;;;;;;;5.20;56.77;101326.78;4992360;28;20132;-76
2022/03/16 12:32:35;;;;;;;118.07;60.72;;;;;;;5.35;56.01;101314.31;5000369;28;20034;-75
2022/03/16 12:35:05;;;;;;;94.35;66.35;;;;;;;5.27;56.04;101329.66;5012751;28;20052;-76
2022/03/16 12:37:31;;;;;;;103.00;70.35;;;;;;;5.49;55.93;101310.47;4994402;28;20050;-76
2022/03/16 12:39:57;;;;;;;90.13;68.65;;;;;;;5.76;54.93;101317.50;4991271;28;20359;-77
2022/03/16 12:42:31;;;;;;;92.65;62.90;;;;;;;5.50;55.83;101314.88;4993854;28;20053;-76
2022/03/16 12:45:04;;;;;;;99.82;66.22;;;;;;;5.72;56.02;101315.59;5012492;28;20033;-75
2022/03/16 12:50:51;;;;;;;84.85;59.85;;;;;;;5.69;53.60;101328.53;5013736;28;20052;-76
2022/03/16 12:53:45;;;;;;;96.15;64.65;;;;;;;5.96;53.40;101325.13;5013724;28;20026;-76
2022/03/16 12:56:17;;;;;;;100.10;64.65;;;;;;;6.32;52.21;101322.81;5010595;28;20437;-75
2022/03/16 12:58:51;;;;;;;89.20;62.78;;;;;;;6.09;51.62;101315.16;5011688;28;20120;-75
2022/03/16 13:01:17;;;;;;;;;;;;;;;6.27;51.64;101316.56;5014005;28;20504;-75
2022/03/16 13:03:44;;;;;;;98.50;68.25;;;;;;;6.37;51.99;101303.03;5011661;28;20312;-75
2022/03/16 13:06:18;;;;;;;94.72;65.88;;;;;;;6.24;51.72;101314.75;5011797;28;20024;-74
2022/03/16 13:08:50;;;;;;;93.40;63.42;;;;;;;6.16;51.56;101312.72;5011558;28;20121;-74
2022/03/16 13:11:24;;;;;;;91.55;63.60;;;;;;;6.12;51.63;101311.75;5010310;28;20046;-75